Time;durP1;ratioP1;P1;durP2;ratioP2;P2;SDS_P1;SDS_P2;PMS_P1;PMS_P2;Temp;Humidity;BMP_temperature;BMP_pressure;BME280_temperature;BME280_humidity;BME280_pressure;Samples;Min_cycle;Max_cycle;Signal;HPM_P1;HPM_P2
2022/05/10 00:01:37;;;;;;;5.43;2.80;;;;;;;;;;4276441;28;10000517;-71
2022/05/10 00:04:04;;;;;;;5.05;2.90;;;;;;;;;;4962111;28;20062;-71
2022/05/10 00:06:33;;;;;;;5.57;2.90;;;;;;;;;;4962515;28;20019;-71
2022/05/10 00:08:59;;;;;;;4.20;3.03;;;;;;;;;;4959921;28;20042;-71
2022/05/10 00:11:25;;;;;;;5.60;2.80;;;;;;;;;;4956400;28;20039;-71
2022/05/10 00:13:51;;;;;;;4.68;3.13;;;;;;;;;;4959567;28;20054;-71
2022/05/10 00:16:18;;;;;;;4.47;3.17;;;;;;;;;;4965286;28;20236;-71
2022/05/10 00:18:44;;;;;;;3.55;2.55;;;;;;;;;;4960392;28;20097;-71
2022/05/10 00:21:11;;;;;;;4.10;2.80;;;;;;;;;;4950024;28;20387;-71
2022/05/10 00:23:38;;;;;;;3.40;2.47;;;;;;;;;;4963129;28;20066;-71
2022/05/10 00:26:04;;;;;;;3.40;2.65;;;;;;;;;;4962760;28;20031;-71
2022/05/10 00:28:30;;;;;;;5.82;2.80;;;;;;;;;;4957314;28;20146;-71
2022/05/10 00:30:56;;;;;;;5.63;3.10;;;13.90;99.90;;;;;;4960169;28;20062;-72
2022/05/10 00:33:28;;;;;;;6.93;3.42;;;13.80;99.90;;;;;;4965399;28;20022;-71
2022/05/10 00:35:55;;;;;;;4.77;3.47;;;13.90;99.90;;;;;;4961555;28;20113;-71
2022/05/10 00:38:25;;;;;;;6.70;3.72;;;13.90;99.90;;;;;;4955687;28;20031;-72
2022/05/10 00:40:50;;;;;;;7.43;3.83;;;13.90;99.90;;;;;;4956492;28;20110;-71
2022/05/10 00:43:31;;;;;;;8.57;3.67;;;14.00;99.90;;;;;;4964469;28;20117;-72
2022/05/10 00:46:21;;;;;;;5.35;3.35;;;14.00;99.90;;;;;;4962783;28;20022;-71
2022/05/10 00:49:04;;;;;;;6.65;3.50;;;14.00;99.90;;;;;;4949525;28;20026;-72
2022/05/10 00:51:45;;;;;;;5.85;3.22;;;14.00;99.90;;;;;;4953322;28;20126;-71
2022/05/10 00:54:33;;;;;;;5.63;3.35;;;14.00;99.90;;;;;;4961177;28;20479;-72
2022/05/10 00:57:18;;;;;;;5.07;2.97;;;13.90;99.90;;;;;;4961677;28;20078;-71
2022/05/10 00:59:58;;;;;;;6.70;3.38;;;13.90;99.90;;;;;;4955727;28;20034;-71
2022/05/10 01:02:48;;;;;;;7.35;3.10;;;13.80;99.90;;;;;;4962753;28;20033;-71
2022/05/10 01:05:38;;;;;;;4.75;3.30;;;13.70;99.90;;;;;;4963521;28;20018;-71
2022/05/10 01:08:26;;;;;;;4.97;3.38;;;13.70;99.90;;;;;;4952964;28;20038;-71
2022/05/10 01:10:52;;;;;;;4.03;3.15;;;;;;;;;;4959997;28;20043;-71
2022/05/10 01:13:21;;;;;;;6.88;3.65;;;13.50;99.90;;;;;;4950597;28;20571;-71
2022/05/10 01:16:11;;;;;;;6.18;3.30;;;13.50;99.90;;;;;;4966727;28;20089;-71
2022/05/10 01:18:38;;;;;;;8.15;3.97;;;13.50;99.90;;;;;;4956841;28;20044;-71
2022/05/10 01:21:10;;;;;;;4.50;3.83;;;13.30;99.90;;;;;;4957841;28;20023;-71
2022/05/10 01:23:44;;;;;;;4.75;3.80;;;13.30;99.90;;;;;;4963579;28;20031;-71
2022/05/10 01:26:42;;;;;;;5.28;3.83;;;13.20;99.90;;;;;;4961061;28;20031;-71
2022/05/10 01:29:13;;;;;;;5.57;3.80;;;13.10;99.90;;;;;;4954038;28;20038;-71
2022/05/10 01:34:40;;;;;;;4.50;3.53;;;13.00;99.90;;;;;;4964609;28;20057;-71
2022/05/10 01:37:11;;;;;;;5.07;3.85;;;12.90;99.90;;;;;;4960089;28;20038;-71
2022/05/10 01:39:55;;;;;;;5.72;4.13;;;12.80;99.90;;;;;;4948156;28;20031;-71
2022/05/10 01:42:40;;;;;;;5.95;4.07;;;12.80;99.90;;;;;;4964992;28;20117;-71
2022/05/10 01:45:12;;;;;;;4.57;3.70;;;12.80;99.90;;;;;;4961978;28;20492;-71
2022/05/10 01:47:47;;;;;;;6.32;3.75;;;12.70;99.90;;;;;;4964356;28;20038;-71
2022/05/10 01:50:22;;;;;;;5.47;3.92;;;12.70;99.90;;;;;;4957049;28;20043;-71
2022/05/10 01:53:03;;;;;;;6.97;4.38;;;12.70;99.90;;;;;;4963592;28;20062;-71
2022/05/10 01:55:38;;;;;;;4.55;3.70;;;12.60;99.90;;;;;;4965129;28;20082;-71
2022/05/10 01:58:25;;;;;;;5.60;3.70;;;12.60;99.90;;;;;;4956266;28;20039;-71
2022/05/10 02:00:58;;;;;;;8.18;4.50;;;12.50;99.90;;;;;;4958951;28;20488;-71
2022/05/10 02:03:37;;;;;;;5.38;4.55;;;12.50;99.90;;;;;;4960750;28;20514;-71
2022/05/10 02:06:16;;;;;;;6.93;4.35;;;12.50;99.90;;;;;;4962394;28;20043;-71
2022/05/10 02:09:00;;;;;;;5.15;4.35;;;12.40;99.90;;;;;;4955804;28;20023;-71
2022/05/10 02:11:26;;;;;;;6.57;4.30;;;12.40;99.90;;;;;;4957213;28;20070;-71
2022/05/10 02:14:18;;;;;;;6.65;4.78;;;12.30;99.90;;;;;;4959589;28;20073;-71
2022/05/10 02:16:55;;;;;;;5.30;4.47;;;12.30;99.90;;;;;;4956300;28;20039;-71
2022/05/10 02:19:43;;;;;;;5.90;4.47;;;12.20;99.90;;;;;;4959562;28;20039;-71
2022/05/10 02:22:24;;;;;;;5.88;5.05;;;12.20;99.90;;;;;;4956307;28;20038;-71
2022/05/10 02:25:01;;;;;;;7.03;5.35;;;12.20;99.90;;;;;;4962227;28;20018;-71
2022/05/10 02:27:37;;;;;;;7.65;5.15;;;12.20;99.90;;;;;;4961165;28;20125;-70
2022/05/10 02:30:06;;;;;;;7.40;6.00;;;12.10;99.90;;;;;;4955631;28;20383;-71
2022/05/10 02:33:08;;;;;;;6.35;5.75;;;12.10;99.90;;;;;;4958100;28;20399;-71
2022/05/10 02:35:40;;;;;;;8.40;5.97;;;12.10;99.90;;;;;;4958804;28;20027;-71
2022/05/10 02:38:10;;;;;;;8.23;6.05;;;12.10;99.90;;;;;;4960686;28;20320;-71
2022/05/10 02:40:40;;;;;;;7.03;5.80;;;12.00;99.90;;;;;;4963436;28;20031;-70
2022/05/10 02:43:06;;;;;;;9.30;5.97;;;12.00;99.90;;;;;;4961731;28;20054;-70
2022/05/10 02:45:32;;;;;;;7.63;5.95;;;12.00;99.90;;;;;;4958211;28;20779;-71
2022/05/10 02:48:02;;;;;;;7.97;6.20;;;12.00;99.90;;;;;;4957036;28;20244;-71
2022/05/10 02:50:32;;;;;;;8.00;6.18;;;11.90;99.90;;;;;;4961722;28;20050;-72
2022/05/10 02:52:58;;;;;;;9.27;7.28;;;11.90;99.90;;;;;;4965046;28;20503;-71
2022/05/10 02:55:33;;;;;;;9.25;6.68;;;11.90;99.90;;;;;;4962873;28;20035;-71
2022/05/10 02:58:04;;;;;;;7.00;6.25;;;11.90;99.90;;;;;;4964974;28;20035;-71
2022/05/10 03:00:31;;;;;;;8.75;6.68;;;11.90;99.90;;;;;;4957229;28;20059;-72
2022/05/10 03:03:04;;;;;;;8.43;6.88;;;11.80;99.90;;;;;;4963889;28;20137;-71
2022/05/10 03:05:30;;;;;;;12.13;7.05;;;11.80;99.90;;;;;;4965352;28;20035;-71
2022/05/10 03:07:56;;;;;;;9.93;6.88;;;11.70;99.90;;;;;;4967444;28;20046;-71
2022/05/10 03:10:22;;;;;;;10.13;7.10;;;11.70;99.90;;;;;;4957465;28;20030;-72
2022/05/10 03:12:48;;;;;;;11.48;7.53;;;11.70;99.90;;;;;;4968186;28;20033;-71
2022/05/10 03:15:14;;;;;;;8.15;6.93;;;11.70;99.90;;;;;;4959270;28;20034;-71
2022/05/10 03:17:40;;;;;;;10.43;6.90;;;11.60;99.90;;;;;;4960224;28;20586;-71
2022/05/10 03:20:06;;;;;;;7.72;6.15;;;11.60;99.90;;;;;;4960241;28;20027;-71
2022/05/10 03:22:32;;;;;;;7.93;6.32;;;11.60;99.90;;;;;;4959895;28;20082;-71
2022/05/10 03:24:57;;;;;;;9.25;6.55;;;11.60;99.90;;;;;;4967910;28;20031;-71
2022/05/10 03:27:23;;;;;;;7.97;5.97;;;11.60;99.90;;;;;;4965767;28;20513;-70
2022/05/10 03:29:48;;;;;;;6.28;5.60;;;11.60;99.90;;;;;;4953163;28;20014;-72
2022/05/10 03:32:14;;;;;;;7.10;5.55;;;11.60;99.90;;;;;;4969281;28;20391;-71
2022/05/10 03:34:55;;;;;;;7.25;5.70;;;11.50;99.90;;;;;;4966062;28;20030;-71
2022/05/10 03:37:25;;;;;;;6.22;5.35;;;11.60;99.90;;;;;;4957372;28;20035;-72
2022/05/10 03:39:51;;;;;;;7.88;5.13;;;11.60;99.90;;;;;;4953628;28;20035;-70
2022/05/10 03:42:16;;;;;;;6.72;5.07;;;11.60;99.90;;;;;;4963154;28;20120;-71
2022/05/10 03:44:42;;;;;;;6.90;5.13;;;11.60;99.90;;;;;;4965177;28;20106;-70
2022/05/10 03:47:10;;;;;;;6.00;5.40;;;11.60;99.90;;;;;;4964321;28;20030;-70
2022/05/10 03:49:36;;;;;;;9.80;6.28;;;11.60;99.90;;;;;;4962317;28;20047;-70
2022/05/10 03:52:03;;;;;;;8.23;6.38;;;11.60;99.90;;;;;;4963874;28;20034;-73
2022/05/10 03:54:28;;;;;;;8.77;6.80;;;11.60;99.90;;;;;;4963928;28;20023;-74
2022/05/10 03:56:54;;;;;;;8.95;7.03;;;11.60;99.90;;;;;;4966610;28;20041;-73
2022/05/10 03:59:20;;;;;;;10.85;7.82;;;11.60;99.90;;;;;;4963629;28;20058;-73
2022/05/10 04:01:46;;;;;;;10.00;8.07;;;11.60;99.90;;;;;;4958130;28;20034;-73
2022/05/10 04:04:13;;;;;;;12.15;8.23;;;11.60;99.90;;;;;;4960441;28;20026;-73
2022/05/10 04:06:39;;;;;;;10.93;8.90;;;11.60;99.90;;;;;;4959497;28;20033;-73
2022/05/10 04:09:05;;;;;;;11.45;8.32;;;11.60;99.90;;;;;;4955157;28;20027;-73
2022/05/10 04:11:30;;;;;;;11.02;8.10;;;11.60;99.90;;;;;;4961288;28;20411;-71
2022/05/10 04:13:56;;;;;;;11.52;8.57;;;11.60;99.90;;;;;;4963212;28;20026;-73
2022/05/10 04:16:22;;;;;;;8.90;7.57;;;11.60;99.90;;;;;;4956799;28;20042;-72
2022/05/10 04:18:48;;;;;;;10.15;7.97;;;11.60;99.90;;;;;;4947408;28;20027;-70
2022/05/10 04:21:14;;;;;;;9.18;7.75;;;11.60;99.90;;;;;;4956695;28;20031;-73
2022/05/10 04:23:40;;;;;;;10.55;8.05;;;11.70;99.90;;;;;;4955042;28;20027;-73
2022/05/10 04:26:09;;;;;;;10.10;7.38;;;11.70;99.90;;;;;;4958066;28;21039;-73
2022/05/10 04:28:35;;;;;;;8.88;7.35;;;11.70;99.90;;;;;;4960633;28;20037;-73
2022/05/10 04:31:02;;;;;;;8.85;7.70;;;11.80;99.90;;;;;;4958960;28;20206;-73
2022/05/10 04:33:27;;;;;;;9.70;8.32;;;11.80;99.90;;;;;;4960436;28;20496;-73
2022/05/10 04:35:53;;;;;;;10.73;8.13;;;12.00;99.90;;;;;;4959949;28;20169;-72
2022/05/10 04:38:19;;;;;;;10.68;8.38;;;12.00;99.90;;;;;;4963722;28;20065;-73
2022/05/10 04:43:31;;;;;;;11.23;8.35;;;12.20;99.90;;;;;;4962473;28;20822;-72
2022/05/10 04:45:57;;;;;;;9.20;8.20;;;12.20;99.90;;;;;;4957737;28;20086;-72
2022/05/10 04:48:22;;;;;;;9.65;8.45;;;12.20;99.90;;;;;;4960037;28;20027;-72
2022/05/10 04:50:48;;;;;;;9.10;8.10;;;12.30;99.90;;;;;;4962249;28;20554;-72
2022/05/10 04:53:15;;;;;;;11.63;8.13;;;12.30;99.90;;;;;;4959712;28;20035;-73
2022/05/10 04:55:40;;;;;;;10.82;8.45;;;12.30;99.90;;;;;;4960221;28;20130;-73
2022/05/10 04:58:06;;;;;;;11.15;8.60;;;12.40;99.90;;;;;;4959956;28;20092;-72
2022/05/10 05:00:32;;;;;;;11.30;8.38;;;12.20;99.90;;;;;;4961902;28;20402;-75
2022/05/10 05:02:57;;;;;;;13.13;8.55;;;12.30;99.90;;;;;;4963071;28;20019;-72
2022/05/10 05:05:23;;;;;;;11.70;9.10;;;12.30;99.90;;;;;;4966631;28;20106;-72
2022/05/10 05:07:49;;;;;;;10.10;8.07;;;12.30;99.90;;;;;;4961958;28;20027;-72
2022/05/10 05:10:14;;;;;;;13.15;8.93;;;12.30;99.90;;;;;;4955749;28;20395;-72
2022/05/10 05:12:40;;;;;;;13.07;9.10;;;12.30;99.90;;;;;;4964814;28;20037;-72
2022/05/10 05:15:09;;;;;;;12.07;9.25;;;12.30;99.90;;;;;;4969556;28;20034;-72
2022/05/10 05:17:35;;;;;;;11.95;9.57;;;12.20;99.90;;;;;;4957372;28;20105;-73
2022/05/10 05:20:00;;;;;;;10.40;8.40;;;12.30;99.90;;;;;;4956934;28;20121;-72
2022/05/10 05:22:27;;;;;;;10.95;8.80;;;12.20;99.90;;;;;;4965871;28;20023;-72
2022/05/10 05:24:53;;;;;;;10.45;9.30;;;12.20;99.90;;;;;;4966563;28;20078;-72
2022/05/10 05:27:19;;;;;;;11.48;9.07;;;12.30;99.90;;;;;;4967242;28;20047;-72
2022/05/10 05:29:46;;;;;;;10.45;8.82;;;12.30;99.90;;;;;;4960237;28;20038;-72
2022/05/10 05:32:12;;;;;;;10.20;7.95;;;12.40;99.90;;;;;;4963922;28;20023;-73
2022/05/10 05:34:38;;;;;;;10.10;8.15;;;12.50;99.90;;;;;;4959181;28;20073;-72
2022/05/10 05:39:49;;;;;;;11.38;8.43;;;12.60;99.90;;;;;;4966448;28;20042;-72
2022/05/10 05:42:15;;;;;;;11.68;7.75;;;12.70;99.90;;;;;;4962999;28;20427;-73
2022/05/10 05:44:43;;;;;;;11.30;8.05;;;12.80;99.90;;;;;;4959046;28;20027;-73
2022/05/10 05:47:09;;;;;;;11.32;7.97;;;12.90;99.90;;;;;;4957933;28;20038;-71
2022/05/10 05:49:35;;;;;;;11.57;7.85;;;13.00;99.90;;;;;;4965687;28;20406;-73
2022/05/10 05:52:02;;;;;;;10.95;8.07;;;13.00;99.90;;;;;;4967858;28;20031;-72
2022/05/10 05:54:28;;;;;;;10.38;8.15;;;13.10;99.90;;;;;;4965140;28;20468;-73
2022/05/10 05:57:06;;;;;;;9.10;7.60;;;13.20;99.90;;;;;;4966092;28;20516;-73
2022/05/10 05:59:32;;;;;;;10.10;7.85;;;13.30;99.90;;;;;;4956911;28;20045;-72
2022/05/10 06:01:58;;;;;;;11.85;8.23;;;13.30;99.90;;;;;;4964190;28;20059;-73
2022/05/10 06:04:24;;;;;;;9.98;8.10;;;13.50;99.90;;;;;;4955803;28;20055;-73
2022/05/10 06:06:50;;;;;;;10.02;8.00;;;13.50;99.90;;;;;;4956202;28;20709;-72
2022/05/10 06:09:20;;;;;;;9.73;8.10;;;13.50;99.90;;;;;;4958875;28;20031;-72
2022/05/10 06:11:46;;;;;;;13.85;7.63;;;13.60;99.90;;;;;;4961654;28;20031;-72
2022/05/10 06:14:11;;;;;;;10.57;7.47;;;13.70;99.90;;;;;;4968739;28;20029;-72
2022/05/10 06:16:40;;;;;;;9.95;7.57;;;13.80;99.90;;;;;;4963904;28;20027;-72
2022/05/10 06:19:05;;;;;;;10.35;7.38;;;13.90;99.90;;;;;;4964452;28;20125;-72
2022/05/10 06:21:32;;;;;;;8.98;7.43;;;14.00;99.90;;;;;;4966417;28;20126;-72
2022/05/10 06:23:58;;;;;;;8.95;7.35;;;14.10;99.90;;;;;;4958401;28;20031;-73
2022/05/10 06:26:23;;;;;;;9.32;7.00;;;14.20;99.90;;;;;;4962884;28;20027;-73
2022/05/10 06:28:49;;;;;;;11.30;7.78;;;14.30;99.90;;;;;;4964468;28;20571;-71
2022/05/10 06:31:15;;;;;;;10.57;6.95;;;14.40;99.90;;;;;;4962427;28;20564;-72
2022/05/10 06:33:40;;;;;;;8.10;6.68;;;14.50;99.90;;;;;;4959920;28;20851;-72
2022/05/10 06:36:06;;;;;;;9.82;7.07;;;14.60;99.90;;;;;;4964900;28;20039;-73
2022/05/10 06:38:34;;;;;;;12.45;7.28;;;14.70;99.90;;;;;;4962841;28;20042;-72
2022/05/10 06:41:03;;;;;;;9.23;7.13;;;14.90;99.90;;;;;;4961873;28;20037;-73
2022/05/10 06:43:30;;;;;;;10.07;7.13;;;15.10;99.90;;;;;;4962620;28;20023;-72
2022/05/10 06:45:59;;;;;;;10.27;6.50;;;15.20;99.90;;;;;;4968177;28;20038;-72
2022/05/10 06:48:25;;;;;;;11.38;7.18;;;15.40;99.90;;;;;;4964050;28;20031;-73
2022/05/10 06:50:51;;;;;;;9.65;6.80;;;15.60;99.90;;;;;;4957769;28;20059;-73
2022/05/10 06:53:16;;;;;;;7.35;6.60;;;15.90;99.90;;;;;;4960376;28;20054;-73
2022/05/10 06:55:43;;;;;;;11.75;7.28;;;16.10;99.90;;;;;;4964470;28;20073;-73
2022/05/10 06:58:09;;;;;;;8.75;7.00;;;16.40;99.90;;;;;;4968575;28;20141;-73
2022/05/10 07:00:38;;;;;;;11.05;7.30;;;16.50;99.90;;;;;;4963015;28;20019;-72
2022/05/10 07:03:08;;;;;;;9.75;6.40;;;;;;;;;;4963885;28;20073;-72
2022/05/10 07:05:34;;;;;;;10.25;6.65;;;;;;;;;;4962464;28;20110;-71
2022/05/10 07:08:00;;;;;;;11.00;6.80;;;;;;;;;;4964488;28;20039;-72
2022/05/10 07:10:26;;;;;;;9.02;6.30;;;18.40;99.90;;;;;;4960933;28;20104;-71
2022/05/10 07:12:53;;;;;;;11.95;6.47;;;17.80;99.90;;;;;;4966759;28;20523;-72
2022/05/10 07:15:20;;;;;;;16.15;6.32;;;17.90;99.90;;;;;;4966798;28;20034;-72
2022/05/10 07:17:45;;;;;;;86.25;9.48;;;18.00;99.90;;;;;;4966457;28;20031;-72
2022/05/10 07:20:13;;;;;;;44.78;6.88;;;18.10;99.90;;;;;;4960747;28;20117;-72
2022/05/10 07:22:40;;;;;;;11.13;5.78;;;18.10;99.90;;;;;;4966652;28;20023;-71
2022/05/10 07:25:06;;;;;;;7.30;5.38;;;18.20;99.90;;;;;;4964183;28;20057;-71
2022/05/10 07:27:32;;;;;;;8.85;5.28;;;18.20;99.90;;;;;;4960132;28;20121;-72
2022/05/10 07:29:58;;;;;;;7.05;5.18;;;18.20;99.90;;;;;;4955322;28;20527;-71
2022/05/10 07:32:25;;;;;;;7.13;4.90;;;18.30;99.90;;;;;;4961907;28;20027;-71
2022/05/10 07:34:50;;;;;;;17.83;5.55;;;18.40;99.90;;;;;;4965584;28;20031;-71
2022/05/10 07:37:16;;;;;;;13.10;5.55;;;18.50;99.90;;;;;;4967652;28;20033;-71
2022/05/10 07:39:42;;;;;;;7.47;5.32;;;18.70;99.90;;;;;;4961335;28;20026;-71
2022/05/10 07:42:08;;;;;;;10.50;5.55;;;18.90;99.90;;;;;;4961720;28;20020;-71
2022/05/10 07:44:34;;;;;;;13.32;5.32;;;19.20;99.90;;;;;;4962053;28;20033;-70
2022/05/10 07:47:00;;;;;;;8.15;5.13;;;19.50;99.90;;;;;;4970394;28;20063;-72
2022/05/10 07:49:26;;;;;;;23.80;6.63;;;19.50;99.90;;;;;;4962839;28;20113;-71
2022/05/10 07:51:52;;;;;;;9.82;5.18;;;19.70;99.90;;;;;;4968838;28;20558;-73
2022/05/10 07:54:18;;;;;;;14.57;5.70;;;19.90;99.90;;;;;;4961478;28;20034;-72
2022/05/10 07:56:44;;;;;;;9.43;5.10;;;20.00;99.90;;;;;;4960121;28;20373;-72
2022/05/10 07:59:10;;;;;;;7.72;5.00;;;20.10;99.90;;;;;;4950831;28;20041;-72
2022/05/10 08:01:36;;;;;;;11.10;5.15;;;20.20;99.90;;;;;;4952810;28;20034;-72
2022/05/10 08:04:02;;;;;;;9.05;4.93;;;20.20;99.90;;;;;;4956639;28;20465;-73
2022/05/10 08:06:28;;;;;;;10.35;4.80;;;20.20;99.90;;;;;;4966106;28;20031;-73
2022/05/10 08:08:54;;;;;;;6.57;4.93;;;20.20;99.90;;;;;;4960553;28;20122;-73
2022/05/10 08:11:20;;;;;;;9.52;4.78;;;20.30;99.90;;;;;;4961615;28;20031;-72
2022/05/10 08:13:46;;;;;;;8.80;5.03;;;20.40;99.90;;;;;;4962695;28;20034;-73
2022/05/10 08:16:11;;;;;;;8.98;4.88;;;20.70;99.90;;;;;;4959672;28;20122;-73
2022/05/10 08:18:41;;;;;;;95.95;7.70;;;20.80;99.90;;;;;;4954966;28;20061;-72
2022/05/10 08:21:08;;;;;;;9.52;4.70;;;21.00;99.90;;;;;;4960436;28;20031;-72
2022/05/10 08:23:36;;;;;;;9.30;4.72;;;21.10;99.90;;;;;;4964891;28;20027;-69
2022/05/10 08:26:03;;;;;;;10.63;4.38;;;21.10;99.90;;;;;;4960182;28;20069;-69
2022/05/10 08:28:30;;;;;;;6.82;4.80;;;21.00;99.90;;;;;;4959174;28;20121;-71
2022/05/10 08:30:58;;;;;;;8.63;4.75;;;21.10;99.90;;;;;;4959864;28;20065;-70
2022/05/10 08:33:30;;;;;;;12.30;5.38;;;21.00;99.90;;;;;;4961995;28;20089;-70
2022/05/10 08:35:57;;;;;;;8.70;5.00;;;20.90;99.90;;;;;;4959543;28;20034;-70
2022/05/10 08:38:24;;;;;;;6.32;4.75;;;20.70;99.90;;;;;;4959217;28;20031;-71
2022/05/10 08:41:01;;;;;;;9.50;4.93;;;20.40;99.90;;;;;;4962376;28;20031;-70
2022/05/10 08:43:29;;;;;;;7.63;4.90;;;;;;;;;;4958880;28;20027;-70
2022/05/10 08:45:56;;;;;;;8.18;4.95;;;20.20;99.90;;;;;;4961936;28;20027;-70
2022/05/10 08:48:24;;;;;;;6.25;4.47;;;20.20;99.90;;;;;;4962600;28;20031;-70
2022/05/10 08:50:50;;;;;;;7.13;5.05;;;20.40;99.90;;;;;;4956107;28;20460;-71
2022/05/10 08:53:17;;;;;;;8.02;5.05;;;20.70;99.90;;;;;;4960245;28;20372;-71
2022/05/10 08:55:56;;;;;;;9.48;5.07;;;21.00;99.90;;;;;;4952454;28;20073;-71
2022/05/10 08:58:59;;;;;;;5.53;4.55;;;21.30;99.90;;;;;;4953595;28;20031;-70
2022/05/10 09:01:31;;;;;;;8.57;4.50;;;21.50;99.90;;;;;;4965438;28;20053;-71
2022/05/10 09:04:18;;;;;;;7.43;4.40;;;21.70;99.90;;;;;;4967079;28;20027;-71
2022/05/10 09:07:01;;;;;;;5.93;4.00;;;21.90;99.90;;;;;;4953769;28;20030;-69
2022/05/10 09:09:33;;;;;;;15.05;4.50;;;22.10;99.90;;;;;;4952424;28;20027;-71
2022/05/10 09:12:07;;;;;;;5.78;4.20;;;22.30;99.90;;;;;;4954901;28;20110;-72
2022/05/10 09:14:41;;;;;;;5.63;4.55;;;22.40;99.90;;;;;;4964486;28;20419;-71
2022/05/10 09:17:09;;;;;;;7.60;4.60;;;22.50;99.90;;;;;;4958329;28;20041;-70
2022/05/10 09:19:41;;;;;;;8.15;4.60;;;22.50;99.90;;;;;;4965796;28;20034;-70
2022/05/10 09:22:33;;;;;;;5.43;4.40;;;22.60;99.90;;;;;;4966021;28;20015;-71
2022/05/10 09:24:59;;;;;;;6.57;4.75;;;22.80;99.90;;;;;;4958386;28;20031;-72
2022/05/10 09:27:32;;;;;;;5.90;4.50;;;22.90;99.90;;;;;;4955881;28;20522;-70
2022/05/10 09:29:59;;;;;;;7.60;4.80;;;23.00;99.90;;;;;;4959577;28;20027;-73
2022/05/10 09:35:21;;;;;;;10.90;4.55;;;23.10;99.90;;;;;;4961622;28;20042;-71
2022/05/10 09:37:58;;;;;;;6.30;4.63;;;23.30;99.90;;;;;;4957420;28;20023;-69
2022/05/10 09:40:32;;;;;;;6.43;4.82;;;23.30;99.10;;;;;;4963833;28;20090;-70
2022/05/10 09:43:28;;;;;;;9.43;4.80;;;23.40;99.90;;;;;;4960812;28;20110;-71
2022/05/10 09:46:19;;;;;;;8.23;4.15;;;23.60;99.60;;;;;;4970288;28;20173;-71
2022/05/10 09:48:46;;;;;;;8.25;4.30;;;23.90;98.70;;;;;;4965634;28;20125;-71
2022/05/10 09:51:39;;;;;;;4.50;4.00;;;24.00;97.40;;;;;;4963362;28;20105;-71
2022/05/10 09:54:12;;;;;;;9.13;4.35;;;23.90;97.00;;;;;;4960259;28;20043;-72
2022/05/10 09:56:39;;;;;;;;;;;23.80;96.40;;;;;;4959656;28;20035;-72
2022/05/10 09:59:22;;;;;;;275.55;14.70;;;23.90;96.80;;;;;;4960395;28;19914;-72
2022/05/10 10:01:55;;;;;;;8.75;4.47;;;24.10;96.70;;;;;;4958591;28;20031;-72
2022/05/10 10:04:34;;;;;;;13.15;4.50;;;24.30;96.60;;;;;;4963680;28;20271;-71
2022/05/10 10:07:16;;;;;;;7.70;4.53;;;24.30;94.60;;;;;;4963536;28;20023;-71
2022/05/10 10:09:55;;;;;;;8.10;3.63;;;24.30;94.00;;;;;;4961809;28;20514;-71
2022/05/10 10:12:30;;;;;;;9.85;4.25;;;24.30;94.00;;;;;;4962095;28;20499;-71
2022/05/10 10:14:56;;;;;;;12.38;4.30;;;24.30;93.70;;;;;;4965967;28;20046;-71
2022/05/10 10:17:37;;;;;;;7.25;4.57;;;24.20;94.10;;;;;;4965442;28;20038;-71
2022/05/10 10:20:27;;;;;;;8.20;4.40;;;24.30;94.40;;;;;;4956433;28;20027;-71
2022/05/10 10:22:56;;;;;;;8.18;4.22;;;24.40;93.30;;;;;;4963936;28;20101;-71
2022/05/10 10:25:43;;;;;;;8.57;4.10;;;24.40;93.20;;;;;;4966255;28;20027;-71
2022/05/10 10:28:08;;;;;;;9.98;4.50;;;24.60;92.90;;;;;;4959803;28;20031;-71
2022/05/10 10:31:16;;;;;;;6.00;4.18;;;24.70;93.70;;;;;;4967918;28;20029;-72
2022/05/10 10:33:52;;;;;;;7.40;4.00;;;24.80;91.60;;;;;;4882000;29;20033;-71
2022/05/10 10:36:24;;;;;;;10.43;3.90;;;25.00;89.70;;;;;;4955758;28;20495;-72
2022/05/10 10:39:29;;;;;;;7.22;3.95;;;25.10;91.00;;;;;;4957875;28;20066;-72
2022/05/10 10:42:10;;;;;;;5.47;3.90;;;25.20;90.00;;;;;;4942651;28;20043;-72
2022/05/10 10:44:42;;;;;;;5.35;3.95;;;25.30;84.60;;;;;;4966115;28;20038;-71
2022/05/10 10:47:34;;;;;;;7.38;3.97;;;25.40;87.60;;;;;;4971365;28;20035;-72
2022/05/10 10:50:23;;;;;;;6.80;3.97;;;25.60;87.00;;;;;;4958537;28;20126;-71
2022/05/10 10:52:49;;;;;;;5.63;3.63;;;25.80;87.20;;;;;;4966337;28;20797;-70
2022/05/10 10:55:18;;;;;;;4.50;3.47;;;25.90;85.70;;;;;;4965373;28;20579;-71
2022/05/10 10:57:50;;;;;;;4.05;3.63;;;25.90;83.40;;;;;;4967373;28;20153;-70
2022/05/10 11:00:18;;;;;;;6.50;3.70;;;25.80;84.80;;;;;;4974359;28;20049;-71
2022/05/10 11:03:09;;;;;;;6.25;3.70;;;25.70;81.60;;;;;;4960860;28;20491;-70
2022/05/10 11:06:11;;;;;;;5.63;3.53;;;25.60;80.80;;;;;;4955906;28;20123;-70
2022/05/10 11:08:46;;;;;;;4.18;3.50;;;25.80;81.00;;;;;;4964241;28;20117;-71
2022/05/10 11:11:48;;;;;;;8.15;3.85;;;25.90;77.90;;;;;;4970314;28;20117;-70
2022/05/10 11:14:28;;;;;;;9.25;3.83;;;25.90;76.30;;;;;;4966463;28;20031;-71
2022/05/10 11:17:51;;;;;;;4.65;3.30;;;26.00;76.90;;;;;;4959755;28;20033;-71
2022/05/10 11:20:27;;;;;;;3.95;3.55;;;25.90;74.00;;;;;;4905964;29;20043;-71
2022/05/10 11:23:05;;;;;;;5.38;3.30;;;25.80;75.10;;;;;;4905578;29;20072;-71
2022/05/10 11:25:51;;;;;;;4.35;3.47;;;25.80;73.20;;;;;;4942219;28;20047;-71
2022/05/10 11:28:49;;;;;;;6.75;3.70;;;25.80;73.80;;;;;;4965563;28;20150;-71
2022/05/10 11:31:42;;;;;;;6.60;3.50;;;25.80;75.80;;;;;;4963586;28;20035;-71
2022/05/10 11:34:27;;;;;;;6.63;3.55;;;25.90;74.90;;;;;;4961736;28;20019;-71
2022/05/10 11:36:58;;;;;;;6.68;3.60;;;26.00;77.20;;;;;;4956477;28;20138;-71
2022/05/10 11:39:52;;;;;;;5.72;3.72;;;26.10;74.50;;;;;;4965731;28;20038;-71
2022/05/10 11:42:18;;;;;;;3.88;3.45;;;26.30;70.70;;;;;;4964618;28;20483;-72
2022/05/10 11:45:13;;;;;;;8.93;3.25;;;26.30;68.70;;;;;;4968782;28;20034;-71
2022/05/10 11:47:54;;;;;;;6.97;3.67;;;26.20;69.80;;;;;;4963810;28;20018;-71
2022/05/10 11:54:20;;;;;;;6.47;3.35;;;26.30;68.60;;;;;;4923076;28;21209;-72
2022/05/10 11:56:49;;;;;;;6.85;3.45;;;26.50;69.20;;;;;;4949636;29;20174;-71
2022/05/10 11:59:23;;;;;;;5.22;3.08;;;26.60;68.10;;;;;;4958728;28;20031;-71
2022/05/10 12:01:54;;;;;;;8.48;2.92;;;26.60;65.90;;;;;;4954160;28;20031;-70
2022/05/10 12:04:36;;;;;;;5.45;2.80;;;26.70;66.60;;;;;;4963611;28;20038;-69
2022/05/10 12:07:24;;;;;;;7.07;2.80;;;26.50;62.20;;;;;;4956095;28;20022;-70
2022/05/10 12:09:54;;;;;;;8.20;2.78;;;26.40;62.40;;;;;;4958563;28;20034;-70
2022/05/10 12:12:32;;;;;;;7.28;2.78;;;26.40;62.00;;;;;;4961226;28;20122;-71
2022/05/10 12:24:02;;;;;;;2.92;2.67;;;26.50;62.20;;;;;;4948680;28;20034;-71
2022/05/10 12:26:54;;;;;;;3.90;3.00;;;26.40;64.00;;;;;;4954204;28;20446;-71
2022/05/10 12:29:38;;;;;;;4.55;2.95;;;26.20;62.90;;;;;;4953324;28;20034;-71
2022/05/10 12:32:28;;;;;;;3.55;3.25;;;26.00;63.00;;;;;;4957983;28;20682;-71
2022/05/10 12:34:58;;;;;;;5.65;2.97;;;26.00;65.00;;;;;;4966177;28;20054;-71
2022/05/10 12:37:27;;;;;;;3.88;2.80;;;26.00;65.70;;;;;;4967740;28;20029;-71
2022/05/10 12:40:10;;;;;;;3.28;2.97;;;26.00;65.30;;;;;;4964786;28;20466;-71
2022/05/10 12:42:38;;;;;;;3.97;2.90;;;25.90;67.10;;;;;;4960890;28;20034;-71
2022/05/10 12:45:32;;;;;;;2.88;2.47;;;26.00;61.90;;;;;;4965398;28;20031;-71
2022/05/10 12:48:29;;;;;;;4.60;2.55;;;26.00;61.30;;;;;;4967606;28;20109;-71
2022/05/10 12:51:20;;;;;;;7.55;2.97;;;26.20;63.90;;;;;;4952508;28;20089;-73
